Jig Strike — WDC5769 — position and weather

sailwx.info

Track history (hours):
 
Tides and Currents Weather Stations Pressure Air Temp Water Temp Dewpoint Dewpoint Depression Visibility Wind Speed Wind Dir Waves Ship Positions

Jig Strike

Owner: Sea Adventure Sportfishing.Inc, Encinitas, CA. More information available from US FCC via Universal Licensing System and Coast Guard Vessel Documentation Center.

Last reported at 2018-Apr-07 22:05 UTC. Time now 2018-May-25 22:38 UTC.
Position N 32°47' W 117°18'.
Warning: this ship's position is 48 days out of date.

Type: Passenger vessel. MMSI: 367046140.

Date/timePositionNaut miles runAvg speedWind from/ knotsBaromVisibWave heightAir tempDewpointWater temp
2018-Apr-07 22:05N 32°47' W 117°18'1 8.8
2018-Apr-07 22:00N 32°48' W 117°18'3 6.4
2018-Apr-07 21:30N 32°51' W 117°19'0 0.0
2018-Apr-07 21:00N 32°51' W 117°19'0 0.6
2018-Apr-07 20:30N 32°51' W 117°19'1 1.8
2018-Apr-07 20:00N 32°50' W 117°20'0 0.3
2018-Apr-07 19:30N 32°50' W 117°19'0 0.1
2018-Apr-07 19:00N 32°50' W 117°19'4 3.8
2018-Apr-07 18:05N 32°47' W 117°21'1 3.9
2018-Apr-07 17:57N 32°46' W 117°21'0 0.8
2018-Apr-07 17:30N 32°47' W 117°21'0 0.4
2018-Apr-07 17:00N 32°46' W 117°21'0 0.5
2018-Apr-07 16:30N 32°47' W 117°21'0 0.4
2018-Apr-07 16:00N 32°46' W 117°21'1 1.7
2018-Apr-07 15:30N 32°46' W 117°22'  
Track history (hours):
 
Tides and Currents Weather Stations Pressure Air Temp Water Temp Dewpoint Dewpoint Depression Visibility Wind Speed Wind Dir Waves Ship Positions

Jig Strike

Owner: Sea Adventure Sportfishing.Inc, Encinitas, CA. More information available from US FCC via Universal Licensing System and Coast Guard Vessel Documentation Center.

Last reported at 2018-Apr-07 22:05 UTC. Time now 2018-May-25 22:38 UTC.
Position N 32°47' W 117°18'.
Warning: this ship's position is 48 days out of date.

Type: Passenger vessel. MMSI: 367046140.

Date/timePositionNaut miles runAvg speedWind from/ knotsBaromVisibWave heightAir tempDewpointWater temp
2018-Apr-07 22:05N 32°47' W 117°18'1 8.8
2018-Apr-07 22:00N 32°48' W 117°18'3 6.4
2018-Apr-07 21:30N 32°51' W 117°19'0 0.0
2018-Apr-07 21:00N 32°51' W 117°19'0 0.6
2018-Apr-07 20:30N 32°51' W 117°19'1 1.8
2018-Apr-07 20:00N 32°50' W 117°20'0 0.3
2018-Apr-07 19:30N 32°50' W 117°19'0 0.1
2018-Apr-07 19:00N 32°50' W 117°19'4 3.8
2018-Apr-07 18:05N 32°47' W 117°21'1 3.9
2018-Apr-07 17:57N 32°46' W 117°21'0 0.8
2018-Apr-07 17:30N 32°47' W 117°21'0 0.4
2018-Apr-07 17:00N 32°46' W 117°21'0 0.5
2018-Apr-07 16:30N 32°47' W 117°21'0 0.4
2018-Apr-07 16:00N 32°46' W 117°21'1 1.7
2018-Apr-07 15:30N 32°46' W 117°22'  

Dump ship's entire track history